Time;durP1;ratioP1;P1;durP2;ratioP2;P2;SDS_P1;SDS_P2;PMS_P1;PMS_P2;Temp;Humidity;BMP_temperature;BMP_pressure;BME280_temperature;BME280_humidity;BME280_pressure;Samples;Min_cycle;Max_cycle;Signal;HPM_P1;HPM_P2
2022/03/31 00:00:24;;;;;;;48.50;16.52;;;7.50;99.90;;;;;;4931886;29;20083;-78
2022/03/31 00:02:49;;;;;;;51.28;16.15;;;7.50;99.90;;;;;;4934686;29;20044;-78
2022/03/31 00:05:15;;;;;;;51.35;17.67;;;7.50;99.90;;;;;;4936330;29;20595;-79
2022/03/31 00:07:53;;;;;;;60.42;16.70;;;7.50;99.90;;;;;;4932865;29;20032;-80
2022/03/31 00:10:33;;;;;;;49.65;15.95;;;7.50;99.90;;;;;;4931783;29;20103;-82
2022/03/31 00:13:01;;;;;;;54.35;16.15;;;7.60;99.90;;;;;;4914256;29;20505;-79
2022/03/31 00:15:28;;;;;;;55.42;17.38;;;7.80;99.90;;;;;;4931818;29;20118;-79
2022/03/31 00:17:55;;;;;;;52.10;16.55;;;7.60;99.90;;;;;;4913900;29;20031;-82
2022/03/31 00:20:21;;;;;;;50.40;16.95;;;7.60;99.90;;;;;;4913395;29;20432;-81
2022/03/31 00:22:47;;;;;;;48.08;14.90;;;7.60;99.90;;;;;;4930534;29;20508;-81
2022/03/31 00:25:13;;;;;;;45.45;16.63;;;7.70;99.90;;;;;;4913971;29;20055;-79
2022/03/31 00:27:39;;;;;;;48.67;17.13;;;7.70;99.90;;;;;;4916292;29;20027;-78
2022/03/31 00:30:07;;;;;;;48.58;15.98;;;7.80;99.90;;;;;;4918360;29;20034;-79
2022/03/31 00:32:33;;;;;;;59.83;18.60;;;7.70;99.90;;;;;;4933881;29;20485;-79
2022/03/31 00:34:59;;;;;;;61.90;17.65;;;7.70;99.90;;;;;;4920032;29;20065;-83
2022/03/31 00:37:27;;;;;;;51.40;16.67;;;7.70;99.90;;;;;;4935480;29;20091;-79
2022/03/31 00:39:53;;;;;;;49.85;16.23;;;7.70;99.90;;;;;;4916879;29;20039;-79
2022/03/31 00:42:19;;;;;;;53.88;15.55;;;7.70;99.90;;;;;;4933979;29;20060;-79
2022/03/31 00:44:44;;;;;;;52.97;17.15;;;7.70;99.90;;;;;;4916256;29;20036;-78
2022/03/31 00:47:11;;;;;;;48.78;15.52;;;;;;;;;;4933443;29;20028;-82
2022/03/31 00:49:38;;;;;;;48.50;15.27;;;7.60;99.90;;;;;;4932735;29;20028;-78
2022/03/31 00:52:05;;;;;;;48.83;15.02;;;7.60;99.90;;;;;;4919883;29;20035;-79
2022/03/31 00:54:32;;;;;;;57.08;15.48;;;7.60;99.90;;;;;;4919760;29;20023;-81
2022/03/31 00:57:00;;;;;;;55.00;16.52;;;7.60;99.90;;;;;;4934895;29;20496;-81
2022/03/31 00:59:26;;;;;;;51.58;16.15;;;7.70;99.90;;;;;;4918137;29;20027;-82
2022/03/31 01:01:53;;;;;;;50.90;15.35;;;7.70;99.90;;;;;;4935083;29;20083;-80
2022/03/31 01:04:19;;;;;;;46.85;16.30;;;7.80;99.90;;;;;;4917313;29;20634;-81
2022/03/31 01:06:45;;;;;;;45.80;16.45;;;7.70;99.90;;;;;;4917456;29;20154;-80
2022/03/31 01:09:12;;;;;;;42.22;15.27;;;7.70;99.90;;;;;;4934295;29;20102;-80
2022/03/31 01:11:39;;;;;;;53.60;16.10;;;7.70;99.90;;;;;;4935478;29;20175;-79
2022/03/31 01:14:06;;;;;;;50.67;17.15;;;7.70;99.90;;;;;;4935773;29;20479;-81
2022/03/31 01:16:33;;;;;;;51.30;16.23;;;7.60;99.90;;;;;;4919538;29;20059;-80
2022/03/31 01:19:04;;;;;;;45.72;16.42;;;7.50;99.90;;;;;;4935583;29;20477;-81
2022/03/31 01:21:30;;;;;;;50.10;16.42;;;7.60;99.90;;;;;;4917935;29;20043;-81
2022/03/31 01:23:56;;;;;;;58.47;16.67;;;7.70;99.90;;;;;;4917884;29;20032;-81
2022/03/31 01:26:22;;;;;;;47.78;16.40;;;7.70;99.90;;;;;;4935488;29;20417;-81
2022/03/31 01:28:48;;;;;;;56.17;17.48;;;7.70;99.90;;;;;;4935274;29;20028;-80
2022/03/31 01:31:14;;;;;;;51.58;17.02;;;7.70;99.90;;;;;;4918051;29;20031;-81
2022/03/31 01:33:41;;;;;;;47.42;14.77;;;7.70;99.90;;;;;;4935250;29;20024;-81
2022/03/31 01:36:07;;;;;;;56.65;16.55;;;7.70;99.90;;;;;;4935563;29;20038;-81
2022/03/31 01:38:34;;;;;;;50.47;16.52;;;7.60;99.90;;;;;;4917948;29;20020;-81
2022/03/31 01:41:00;;;;;;;60.15;17.40;;;7.60;99.90;;;;;;4916742;29;20043;-81
2022/03/31 01:43:26;;;;;;;51.97;16.08;;;7.60;99.90;;;;;;4918723;29;20347;-80
2022/03/31 01:45:54;;;;;;;55.63;18.58;;;7.60;99.90;;;;;;4918094;29;20028;-81
2022/03/31 01:48:20;;;;;;;61.85;19.25;;;7.70;99.90;;;;;;4916987;29;20118;-81
2022/03/31 01:50:46;;;;;;;50.75;16.60;;;7.70;99.90;;;;;;4916896;29;20055;-80
2022/03/31 01:53:14;;;;;;;45.55;17.33;;;7.70;99.90;;;;;;4917307;29;20130;-81
2022/03/31 01:55:40;;;;;;;49.63;16.60;;;7.60;99.90;;;;;;4917463;29;20031;-81
2022/03/31 01:58:06;;;;;;;53.92;15.80;;;7.60;99.90;;;;;;4935079;29;20028;-80
2022/03/31 02:00:32;;;;;;;43.05;15.35;;;7.70;99.90;;;;;;4916277;29;20080;-80
2022/03/31 02:02:59;;;;;;;53.25;16.73;;;7.70;99.90;;;;;;4916840;29;20469;-81
2022/03/31 02:05:25;;;;;;;51.25;16.70;;;7.60;99.90;;;;;;4917818;29;20550;-80
2022/03/31 02:07:55;;;;;;;49.13;15.93;;;7.60;99.90;;;;;;4917357;29;20454;-80
2022/03/31 02:10:20;;;;;;;;;;;7.60;99.90;;;;;;4917317;29;20032;-80
2022/03/31 02:12:49;;;;;;;52.97;15.73;;;7.60;99.90;;;;;;4934663;29;20296;-81
2022/03/31 02:15:15;;;;;;;54.20;13.20;;;7.60;99.90;;;;;;4935092;29;20030;-80
2022/03/31 02:17:41;;;;;;;44.00;15.77;;;7.60;99.90;;;;;;4917305;29;20118;-80
2022/03/31 02:20:08;;;;;;;44.08;15.52;;;7.60;99.90;;;;;;4934447;29;20023;-80
2022/03/31 02:22:33;;;;;;;50.47;15.50;;;7.60;99.90;;;;;;4934317;29;20032;-80
2022/03/31 02:24:59;;;;;;;49.88;16.85;;;7.60;99.90;;;;;;4934348;29;20115;-80
2022/03/31 02:27:25;;;;;;;40.00;14.07;;;7.70;99.90;;;;;;4934036;29;20032;-80
2022/03/31 02:29:51;;;;;;;38.92;14.75;;;7.60;99.90;;;;;;4917138;29;20031;-80
2022/03/31 02:32:16;;;;;;;38.03;14.13;;;7.60;99.90;;;;;;4917115;29;20460;-81
2022/03/31 02:34:42;;;;;;;44.83;14.57;;;7.60;99.90;;;;;;4931191;29;20032;-80
2022/03/31 02:37:08;;;;;;;37.55;13.57;;;7.60;99.90;;;;;;4916889;29;20130;-80
2022/03/31 02:39:33;;;;;;;40.33;13.40;;;7.60;99.90;;;;;;4915974;29;20027;-81
2022/03/31 02:42:01;;;;;;;44.05;14.60;;;7.60;99.90;;;;;;4917035;29;20050;-81
2022/03/31 02:44:27;;;;;;;38.05;14.38;;;7.60;99.90;;;;;;4916597;29;20051;-81
2022/03/31 02:46:53;;;;;;;51.50;15.82;;;7.60;99.90;;;;;;4934116;29;20472;-80
2022/03/31 02:49:18;;;;;;;54.35;17.63;;;7.60;99.90;;;;;;4915998;29;20028;-80
2022/03/31 02:51:44;;;;;;;59.00;19.20;;;7.60;99.90;;;;;;4915237;29;20032;-80
2022/03/31 02:56:54;;;;;;;61.40;19.30;;;7.60;99.90;;;;;;4933109;29;20039;-80
2022/03/31 02:59:20;;;;;;;61.35;19.88;;;7.60;99.90;;;;;;4933569;29;20384;-80
2022/03/31 03:01:46;;;;;;;56.05;18.13;;;7.60;99.90;;;;;;4932873;29;20042;-80
2022/03/31 03:04:12;;;;;;;57.88;18.15;;;7.60;99.90;;;;;;4933030;29;20488;-80
2022/03/31 03:06:38;;;;;;;55.65;19.58;;;7.60;99.90;;;;;;4932865;29;20074;-80
2022/03/31 03:09:05;;;;;;;43.35;15.00;;;7.60;99.90;;;;;;4932723;29;20124;-80
2022/03/31 03:11:31;;;;;;;40.30;13.90;;;7.60;99.90;;;;;;4915676;29;20067;-80
2022/03/31 03:13:57;;;;;;;43.00;14.65;;;7.60;99.90;;;;;;4916856;29;20058;-80
2022/03/31 03:16:25;;;;;;;43.17;14.15;;;7.60;99.90;;;;;;4920224;29;20047;-80
2022/03/31 03:18:53;;;;;;;38.40;14.20;;;7.60;99.90;;;;;;4919721;29;20262;-83
2022/03/31 03:21:20;;;;;;;39.13;14.10;;;7.60;99.90;;;;;;4933990;29;20043;-80
2022/03/31 03:23:46;;;;;;;49.08;14.05;;;7.60;99.90;;;;;;4933329;29;20963;-81
2022/03/31 03:26:12;;;;;;;50.78;14.85;;;7.60;99.90;;;;;;4915999;29;20047;-80
2022/03/31 03:28:38;;;;;;;48.33;13.82;;;7.50;99.90;;;;;;4916289;29;20023;-80
2022/03/31 03:31:07;;;;;;;40.33;13.82;;;7.60;99.90;;;;;;4916277;29;20362;-79
2022/03/31 03:33:34;;;;;;;41.85;13.95;;;7.50;99.90;;;;;;4916372;29;20047;-80
2022/03/31 03:36:00;;;;;;;35.90;12.57;;;7.50;99.90;;;;;;4916249;29;20038;-81
2022/03/31 03:38:27;;;;;;;36.38;14.38;;;8.60;99.90;;;;;;4933458;29;20028;-80
2022/03/31 03:40:53;;;;;;;43.92;13.95;;;7.50;99.90;;;;;;4916572;29;20485;-80
2022/03/31 03:43:19;;;;;;;40.97;14.57;;;7.50;99.90;;;;;;4933433;29;20105;-80
2022/03/31 03:45:45;;;;;;;40.38;14.05;;;7.50;99.90;;;;;;4933100;29;20124;-80
2022/03/31 03:48:11;;;;;;;42.83;13.95;;;7.50;99.90;;;;;;4933235;29;20461;-81
2022/03/31 03:50:41;;;;;;;41.75;13.15;;;7.50;99.90;;;;;;4915864;29;20032;-81
2022/03/31 03:53:07;;;;;;;;;;;7.50;99.90;;;;;;4916113;29;20031;-80
2022/03/31 03:55:34;;;;;;;41.13;11.43;;;7.40;99.90;;;;;;4933236;29;19907;-80
2022/03/31 03:58:00;;;;;;;38.95;12.55;;;7.40;99.90;;;;;;4932525;29;20031;-80
2022/03/31 04:00:27;;;;;;;36.42;12.50;;;7.30;99.90;;;;;;4915340;29;20038;-80
2022/03/31 04:02:53;;;;;;;42.42;14.98;;;7.20;99.90;;;;;;4934153;29;20032;-80
2022/03/31 04:05:20;;;;;;;40.95;13.80;;;7.20;99.90;;;;;;4930405;29;20028;-80
2022/03/31 04:07:46;;;;;;;39.65;14.02;;;7.10;99.90;;;;;;4918683;29;20071;-80
2022/03/31 04:10:12;;;;;;;41.90;14.38;;;7.10;99.90;;;;;;4935793;29;20059;-80
2022/03/31 04:12:39;;;;;;;38.88;12.05;;;7.10;99.90;;;;;;4918758;29;20020;-79
2022/03/31 04:15:06;;;;;;;41.00;13.98;;;7.10;99.90;;;;;;4918918;29;20187;-80
2022/03/31 04:17:33;;;;;;;42.20;12.85;;;7.10;99.90;;;;;;4918839;29;20020;-80
2022/03/31 04:19:58;;;;;;;40.13;13.50;;;7.10;99.90;;;;;;4919500;29;20180;-79
2022/03/31 04:22:24;;;;;;;36.08;12.23;;;7.20;99.90;;;;;;4935350;29;20183;-79
2022/03/31 04:24:50;;;;;;;42.53;13.85;;;7.20;99.90;;;;;;4935371;29;20150;-79
2022/03/31 04:27:16;;;;;;;45.45;14.93;;;7.20;99.90;;;;;;4917947;29;20409;-79
2022/03/31 04:29:42;;;;;;;50.20;13.05;;;7.10;99.90;;;;;;4935439;29;20027;-81
2022/03/31 04:32:08;;;;;;;38.05;14.27;;;7.20;99.90;;;;;;4935466;29;20038;-79
2022/03/31 04:34:37;;;;;;;40.80;12.98;;;7.20;99.90;;;;;;4935820;29;20027;-79
2022/03/31 04:37:03;;;;;;;49.27;13.63;;;7.20;99.90;;;;;;4935520;29;20564;-79
2022/03/31 04:39:28;;;;;;;35.40;12.18;;;7.20;99.90;;;;;;4918030;29;20047;-79
2022/03/31 04:41:54;;;;;;;33.40;12.68;;;7.20;99.90;;;;;;4935058;29;20407;-79
2022/03/31 04:44:20;;;;;;;36.97;13.10;;;7.20;99.90;;;;;;4935596;29;20086;-79
2022/03/31 04:46:47;;;;;;;32.33;12.30;;;7.20;99.90;;;;;;4935424;29;20020;-79
2022/03/31 04:49:13;;;;;;;34.90;12.52;;;7.20;99.90;;;;;;4935661;29;20276;-80
2022/03/31 04:51:39;;;;;;;36.95;13.63;;;7.20;99.90;;;;;;4918726;29;20122;-80
2022/03/31 04:54:06;;;;;;;42.47;13.27;;;7.20;99.90;;;;;;4935688;29;20023;-79
2022/03/31 04:56:32;;;;;;;33.45;11.98;;;7.20;99.90;;;;;;4918095;29;20039;-79
2022/03/31 04:58:58;;;;;;;32.97;11.98;;;7.20;99.90;;;;;;4935522;29;20055;-81
2022/03/31 05:01:24;;;;;;;39.55;13.20;;;7.20;99.90;;;;;;4918072;29;20098;-80
2022/03/31 05:03:51;;;;;;;35.03;12.40;;;7.20;99.90;;;;;;4918192;29;20385;-80
2022/03/31 05:06:17;;;;;;;35.88;12.43;;;7.20;99.90;;;;;;4918510;29;20115;-79
2022/03/31 05:08:43;;;;;;;35.22;12.40;;;7.20;99.90;;;;;;4935054;29;20024;-79
2022/03/31 05:11:09;;;;;;;34.00;12.48;;;7.20;99.90;;;;;;4918244;29;20031;-80
2022/03/31 05:13:35;;;;;;;32.22;12.52;;;7.20;99.90;;;;;;4934723;29;20023;-80
2022/03/31 05:16:01;;;;;;;32.83;12.52;;;7.20;99.90;;;;;;4917320;29;20055;-80
2022/03/31 05:18:27;;;;;;;42.67;12.70;;;7.20;99.90;;;;;;4939630;29;20042;-81
2022/03/31 05:20:53;;;;;;;40.10;13.90;;;7.30;99.90;;;;;;4941975;29;20032;-81
2022/03/31 05:23:19;;;;;;;37.22;12.45;;;7.30;99.90;;;;;;4944641;29;20024;-81
2022/03/31 05:25:45;;;;;;;42.40;13.77;;;7.30;99.90;;;;;;4946748;29;20126;-81
2022/03/31 05:28:11;;;;;;;31.38;12.93;;;7.30;99.90;;;;;;4947686;29;20339;-83
2022/03/31 05:30:38;;;;;;;40.05;12.38;;;7.30;99.90;;;;;;4949581;29;20022;-82
2022/03/31 05:33:04;;;;;;;34.25;11.93;;;7.30;99.90;;;;;;4950166;29;20020;-82
2022/03/31 05:35:30;;;;;;;41.92;13.07;;;7.30;99.90;;;;;;4951512;29;20032;-82
2022/03/31 05:37:56;;;;;;;31.80;11.13;;;7.30;99.90;;;;;;4949010;29;20038;-82
2022/03/31 05:40:22;;;;;;;30.88;12.35;;;7.30;99.90;;;;;;4950034;29;20028;-83
2022/03/31 05:42:48;;;;;;;33.97;13.48;;;7.30;99.90;;;;;;4944288;29;20027;-82
2022/03/31 05:45:14;;;;;;;32.80;10.93;;;7.30;99.90;;;;;;4948474;29;20091;-82
2022/03/31 05:47:42;;;;;;;34.75;12.75;;;7.30;99.90;;;;;;4948593;29;20054;-82
2022/03/31 05:50:10;;;;;;;36.90;12.88;;;7.30;99.90;;;;;;4929851;29;20080;-84
2022/03/31 05:52:40;;;;;;;29.63;12.02;;;7.60;99.90;;;;;;4940752;29;20091;-83
2022/03/31 05:55:08;;;;;;;36.92;13.45;;;7.30;99.90;;;;;;4939137;29;20027;-83
2022/03/31 05:57:35;;;;;;;30.55;11.82;;;7.30;99.90;;;;;;4938463;29;20111;-82
2022/03/31 06:00:04;;;;;;;39.10;12.48;;;7.30;99.90;;;;;;4937894;29;20098;-82
2022/03/31 06:02:30;;;;;;;33.15;11.48;;;7.30;99.90;;;;;;4936173;29;20615;-82
2022/03/31 06:04:55;;;;;;;40.20;12.55;;;7.30;99.90;;;;;;4936758;29;20466;-81
2022/03/31 06:07:21;;;;;;;36.85;12.95;;;7.30;99.90;;;;;;4937093;29;20083;-81
2022/03/31 06:09:47;;;;;;;41.05;15.07;;;7.30;99.90;;;;;;4934908;29;20020;-81
2022/03/31 06:12:13;;;;;;;39.80;13.40;;;7.40;99.90;;;;;;4937676;29;20078;-82
2022/03/31 06:14:38;;;;;;;37.35;12.73;;;7.40;99.90;;;;;;4940206;29;20096;-84
2022/03/31 06:17:04;;;;;;;34.92;12.05;;;7.40;99.90;;;;;;4948283;29;20480;-84
2022/03/31 06:19:36;;;;;;;41.30;12.48;;;7.40;99.90;;;;;;4950769;29;20027;-85
2022/03/31 06:22:08;;;;;;;36.63;12.35;;;7.40;99.90;;;;;;4950547;29;20038;-84
2022/03/31 06:24:34;;;;;;;33.15;11.25;;;4.60;99.90;;;;;;4937860;29;20245;-80
2022/03/31 06:27:00;;;;;;;43.00;12.27;;;5.00;99.90;;;;;;4935418;29;20484;-82
2022/03/31 06:29:27;;;;;;;41.25;13.75;;;7.40;99.90;;;;;;4937440;29;20501;-82
2022/03/31 06:31:54;;;;;;;42.80;12.93;;;7.40;99.90;;;;;;4933896;29;20393;-82
2022/03/31 06:34:21;;;;;;;41.80;14.07;;;7.40;99.90;;;;;;4931084;29;20034;-81
2022/03/31 06:36:47;;;;;;;36.10;12.48;;;7.40;99.90;;;;;;4914134;29;20031;-81
2022/03/31 06:39:13;;;;;;;41.97;13.05;;;7.40;99.90;;;;;;4917449;29;20019;-80
2022/03/31 06:41:42;;;;;;;46.83;13.32;;;7.50;99.90;;;;;;4933036;29;20036;-81
2022/03/31 06:44:09;;;;;;;43.90;14.82;;;7.40;99.90;;;;;;4916280;29;20074;-80
2022/03/31 06:46:35;;;;;;;40.55;15.00;;;7.50;99.90;;;;;;4935507;29;20042;-81
2022/03/31 06:49:01;;;;;;;43.90;13.73;;;7.60;99.90;;;;;;4917226;29;20008;-85
2022/03/31 06:51:27;;;;;;;36.65;13.23;;;7.60;99.90;;;;;;4913171;29;20059;-80
2022/03/31 06:53:55;;;;;;;38.88;14.23;;;7.60;99.90;;;;;;4917707;29;20087;-84
2022/03/31 06:56:23;;;;;;;39.75;13.10;;;7.20;99.90;;;;;;4922818;29;20206;-81
2022/03/31 06:58:51;;;;;;;37.97;14.05;;;7.80;99.90;;;;;;4923155;29;20461;-79
2022/03/31 07:01:17;;;;;;;37.63;13.02;;;7.80;99.90;;;;;;4919878;29;20039;-81
2022/03/31 07:03:43;;;;;;;35.13;12.13;;;7.80;99.90;;;;;;4921784;29;20473;-79
2022/03/31 07:06:30;;;;;;;42.25;13.50;;;7.90;99.90;;;;;;4910676;29;20119;-80
2022/03/31 07:08:56;;;;;;;46.40;14.40;;;7.90;99.90;;;;;;4912266;29;20485;-78
2022/03/31 07:11:25;;;;;;;39.70;13.65;;;7.90;99.90;;;;;;4916301;29;20143;-84
2022/03/31 07:13:52;;;;;;;35.22;13.02;;;7.90;99.90;;;;;;4929458;29;20075;-83
2022/03/31 07:16:18;;;;;;;38.13;11.98;;;8.00;99.90;;;;;;4921382;29;20065;-82
2022/03/31 07:18:44;;;;;;;36.08;13.02;;;8.10;99.90;;;;;;4917101;29;20048;-82
2022/03/31 07:21:22;;;;;;;29.98;11.23;;;8.10;99.90;;;;;;4932542;29;20039;-85
2022/03/31 07:23:57;;;;;;;28.73;10.90;;;8.20;99.90;;;;;;4933863;29;20020;-84
2022/03/31 07:26:39;;;;;;;35.42;11.90;;;8.20;99.90;;;;;;4931692;29;20044;-84
2022/03/31 07:29:14;;;;;;;31.00;12.63;;;8.30;99.90;;;;;;4916868;29;20051;-85
2022/03/31 07:31:56;;;;;;;33.97;11.55;;;8.50;99.90;;;;;;4931472;29;20119;-85
2022/03/31 07:34:39;;;;;;;24.58;10.38;;;8.60;99.90;;;;;;4932148;29;20052;-85
2022/03/31 07:37:34;;;;;;;29.58;11.20;;;8.50;99.90;;;;;;4931850;29;20036;-84
2022/03/31 07:40:00;;;;;;;26.02;9.80;;;8.60;99.90;;;;;;4918993;29;20052;-81
2022/03/31 07:42:25;;;;;;;21.95;9.55;;;8.60;99.90;;;;;;4920686;29;20036;-82
2022/03/31 07:44:51;;;;;;;24.20;9.85;;;8.40;99.90;;;;;;4921948;29;20550;-83
2022/03/31 07:47:17;;;;;;;19.02;8.40;;;8.80;99.90;;;;;;4924561;29;20099;-84
2022/03/31 07:49:43;;;;;;;24.35;8.75;;;8.70;99.90;;;;;;4921858;29;20032;-84
2022/03/31 07:52:15;;;;;;;23.88;10.02;;;8.90;99.90;;;;;;4924248;29;20524;-84
2022/03/31 07:54:43;;;;;;;24.75;8.55;;;9.00;99.90;;;;;;4920700;29;20386;-83
2022/03/31 07:57:09;;;;;;;14.43;6.50;;;9.20;99.90;;;;;;4917486;29;20036;-81
2022/03/31 07:59:35;;;;;;;19.85;6.68;;;9.20;99.90;;;;;;4912355;29;20467;-80
2022/03/31 08:02:02;;;;;;;17.38;6.85;;;9.30;99.90;;;;;;4913658;29;20036;-81
2022/03/31 08:04:27;;;;;;;14.32;6.13;;;9.60;99.90;;;;;;4915824;29;20024;-81
2022/03/31 08:06:54;;;;;;;17.00;6.28;;;9.70;99.90;;;;;;4916219;29;20028;-82
2022/03/31 08:09:23;;;;;;;19.77;7.28;;;9.60;99.90;;;;;;4913909;29;20496;-80
2022/03/31 08:11:50;;;;;;;12.98;5.82;;;9.60;99.90;;;;;;4911912;29;20404;-79
2022/03/31 08:14:19;;;;;;;16.55;5.22;;;9.60;99.90;;;;;;4911372;29;20036;-81
2022/03/31 08:16:46;;;;;;;11.60;3.97;;;9.50;99.90;;;;;;4916702;29;20043;-83
2022/03/31 08:19:15;;;;;;;14.05;4.18;;;9.30;99.90;;;;;;4915111;29;20115;-81
2022/03/31 08:21:44;;;;;;;12.83;3.97;;;9.20;99.90;;;;;;4939732;29;20135;-81
2022/03/31 08:24:13;;;;;;;15.95;4.90;;;9.50;99.90;;;;;;4946475;29;20083;-83
2022/03/31 08:26:45;;;;;;;13.48;5.88;;;9.40;99.90;;;;;;4948581;29;20052;-83
2022/03/31 08:29:11;;;;;;;17.30;4.80;;;9.50;99.90;;;;;;4942504;29;20036;-80
2022/03/31 08:31:37;;;;;;;12.43;4.63;;;9.80;99.90;;;;;;4938857;28;20067;-79
2022/03/31 08:34:05;;;;;;;15.18;4.65;;;10.00;99.90;;;;;;4944221;29;20028;-84
2022/03/31 08:36:33;;;;;;;16.80;5.07;;;10.10;99.90;;;;;;4945331;29;20075;-83
2022/03/31 08:39:13;;;;;;;16.55;5.25;;;10.20;99.90;;;;;;4948036;29;20042;-84
2022/03/31 08:41:39;;;;;;;10.82;3.83;;;10.20;99.90;;;;;;4946677;29;20047;-83
2022/03/31 08:44:07;;;;;;;8.15;3.70;;;9.90;99.90;;;;;;4943016;29;20552;-84
2022/03/31 08:46:36;;;;;;;11.00;3.47;;;9.80;99.90;;;;;;4942465;29;20031;-84
2022/03/31 08:49:16;;;;;;;11.98;4.72;;;9.70;99.90;;;;;;4946043;29;20481;-83
2022/03/31 08:51:46;;;;;;;12.02;4.45;;;11.40;99.90;;;;;;4947930;29;20087;-84
2022/03/31 08:54:15;;;;;;;9.70;4.28;;;10.00;99.90;;;;;;4946838;29;20042;-84
2022/03/31 08:56:41;;;;;;;15.25;5.35;;;10.10;99.90;;;;;;4945659;29;20031;-84
2022/03/31 08:59:10;;;;;;;13.80;3.55;;;12.30;99.90;;;;;;4947760;29;20064;-84
2022/03/31 09:01:39;;;;;;;10.32;2.50;;;10.30;99.90;;;;;;4945787;29;20028;-83
2022/03/31 09:04:06;;;;;;;11.35;2.38;;;10.10;99.90;;;;;;4926630;29;20039;-83
2022/03/31 09:07:00;;;;;;;8.23;2.53;;;10.10;99.90;;;;;;4943534;29;20656;-83
2022/03/31 09:09:29;;;;;;;14.30;3.53;;;10.20;99.90;;;;;;4944633;29;20432;-84
2022/03/31 09:12:00;;;;;;;13.48;3.65;;;10.30;99.90;;;;;;4945155;29;20032;-83
2022/03/31 09:14:33;;;;;;;9.43;2.88;;;10.50;99.90;;;;;;4947539;29;20020;-83
2022/03/31 09:17:22;;;;;;;7.85;2.00;;;10.80;99.90;;;;;;4944772;29;20059;-83
2022/03/31 09:19:59;;;;;;;8.57;2.53;;;10.90;99.90;;;;;;4946980;29;20265;-83
2022/03/31 09:22:27;;;;;;;7.95;2.70;;;10.60;99.90;;;;;;4946926;29;20040;-84
2022/03/31 09:25:18;;;;;;;10.18;2.45;;;10.90;99.90;;;;;;4948432;29;20080;-84
2022/03/31 09:27:50;;;;;;;11.80;3.17;;;11.10;99.90;;;;;;4950130;29;20083;-84
2022/03/31 09:30:25;;;;;;;10.00;2.58;;;11.40;99.90;;;;;;4950406;29;20043;-84
2022/03/31 09:32:52;;;;;;;8.13;2.33;;;11.80;99.90;;;;;;4950218;29;20444;-84
2022/03/31 09:35:30;;;;;;;6.68;2.13;;;11.80;99.90;;;;;;4951373;29;20031;-84
2022/03/31 09:38:28;;;;;;;15.77;3.35;;;11.80;99.90;;;;;;4952038;29;20134;-84
2022/03/31 09:41:11;;;;;;;4.53;2.10;;;11.70;99.90;;;;;;4952806;29;20051;-85
2022/03/31 09:44:21;;;;;;;6.97;1.42;;;11.50;99.90;;;;;;4937744;29;20027;-85
2022/03/31 09:47:01;;;;;;;7.30;1.40;;;11.30;99.90;;;;;;4949787;29;20039;-85
2022/03/31 09:50:04;;;;;;;7.80;1.95;;;11.40;99.90;;;;;;4939971;29;20382;-85
2022/03/31 09:53:08;;;;;;;5.50;2.33;;;11.50;99.90;;;;;;4953482;29;20028;-85
2022/03/31 09:55:53;;;;;;;3.45;1.67;;;11.70;99.90;;;;;;4939491;29;20032;-84
2022/03/31 09:58:20;;;;;;;6.63;2.10;;;11.70;99.90;;;;;;4921426;29;20031;-81
2022/03/31 10:00:46;;;;;;;8.85;2.22;;;11.70;99.90;;;;;;4937864;29;20026;-81
2022/03/31 10:03:17;;;;;;;7.32;1.55;;;12.20;99.90;;;;;;4936391;29;20034;-81
2022/03/31 10:05:45;;;;;;;5.63;1.55;;;12.50;99.90;;;;;;4935612;29;20008;-81
2022/03/31 10:08:12;;;;;;;5.38;2.08;;;12.50;99.90;;;;;;4935315;29;20130;-81
2022/03/31 10:10:39;;;;;;;4.63;1.13;;;12.40;99.90;;;;;;4932109;29;20031;-81
2022/03/31 10:13:19;;;;;;;3.70;2.58;;;12.00;99.90;;;;;;4934243;29;20109;-80
2022/03/31 10:15:46;;;;;;;5.97;2.00;;;11.80;99.90;;;;;;4933847;29;20055;-80
2022/03/31 10:18:35;;;;;;;8.15;2.10;;;11.60;99.90;;;;;;4934521;29;20656;-81
2022/03/31 10:21:01;;;;;;;9.13;2.25;;;11.50;99.90;;;;;;4931510;29;20039;-82
2022/03/31 10:26:25;;;;;;;13.88;4.32;;;11.40;99.90;;;;;;4936147;29;20150;-79
2022/03/31 10:29:02;;;;;;;5.57;2.17;;;11.10;99.90;;;;;;4928327;29;20103;-78
2022/03/31 10:31:39;;;;;;;9.38;3.47;;;10.80;99.90;;;;;;4913648;29;20389;-77
2022/03/31 10:34:06;;;;;;;13.48;2.70;;;10.80;99.90;;;;;;4930521;29;20128;-78
2022/03/31 10:36:49;;;;;;;20.48;5.43;;;10.70;99.90;;;;;;4930147;29;20038;-78
2022/03/31 10:39:21;;;;;;;13.57;3.22;;;10.60;99.90;;;;;;4934078;29;20038;-78
2022/03/31 10:41:48;;;;;;;10.73;3.13;;;10.60;99.90;;;;;;4932037;29;20035;-77
2022/03/31 10:44:14;;;;;;;15.35;4.32;;;10.30;99.90;;;;;;4931674;29;20052;-78
2022/03/31 10:46:42;;;;;;;15.07;3.45;;;10.50;99.90;;;;;;4931516;29;20121;-78
2022/03/31 10:49:17;;;;;;;16.30;3.70;;;10.60;99.90;;;;;;4930504;29;20027;-78
2022/03/31 10:51:45;;;;;;;12.50;3.30;;;10.40;99.90;;;;;;4948763;29;20123;-77
2022/03/31 10:54:24;;;;;;;14.25;3.78;;;10.50;99.90;;;;;;4948773;29;20134;-79
2022/03/31 10:57:12;;;;;;;19.30;4.60;;;10.40;99.90;;;;;;4949960;29;20031;-79
2022/03/31 10:59:39;;;;;;;6.38;1.75;;;10.30;99.90;;;;;;4954152;29;20031;-77
2022/03/31 11:02:11;;;;;;;7.05;2.20;;;10.20;99.90;;;;;;4956030;29;20051;-78
2022/03/31 11:05:04;;;;;;;7.50;1.33;;;9.90;99.90;;;;;;4952633;28;20031;-78
2022/03/31 11:07:39;;;;;;;4.38;1.27;;;9.80;99.90;;;;;;4957045;29;20055;-78
2022/03/31 11:10:06;;;;;;;1.58;0.80;;;9.90;99.90;;;;;;4952271;29;20027;-78
2022/03/31 11:12:33;;;;;;;3.38;1.17;;;10.00;99.90;;;;;;4951455;28;20026;-78
2022/03/31 11:15:19;;;;;;;2.53;1.33;;;10.00;99.90;;;;;;4955763;29;20531;-78
2022/03/31 11:17:48;;;;;;;4.07;1.67;;;10.10;99.90;;;;;;4955062;29;20031;-78
2022/03/31 11:20:20;;;;;;;5.07;1.17;;;9.90;99.90;;;;;;4947140;29;20098;-78
2022/03/31 11:22:59;;;;;;;4.40;1.42;;;9.80;99.90;;;;;;4936380;29;20040;-78
2022/03/31 11:25:28;;;;;;;8.75;1.73;;;9.70;99.90;;;;;;4918913;29;20122;-78
2022/03/31 11:27:58;;;;;;;4.63;1.35;;;9.50;99.90;;;;;;4941242;29;20091;-77
2022/03/31 11:30:32;;;;;;;6.80;1.95;;;9.20;99.90;;;;;;4923703;29;20020;-77
2022/03/31 11:32:58;;;;;;;5.10;1.73;;;9.10;99.90;;;;;;4940140;29;20111;-78
2022/03/31 11:35:26;;;;;;;3.55;1.90;;;8.70;99.90;;;;;;4922173;29;20027;-78
2022/03/31 11:37:55;;;;;;;7.35;2.03;;;8.70;99.90;;;;;;4920082;29;20086;-78
2022/03/31 11:40:41;;;;;;;4.47;1.65;;;8.60;99.90;;;;;;4931231;29;20495;-78
2022/03/31 11:43:09;;;;;;;9.40;2.88;;;8.60;99.90;;;;;;4913534;29;20071;-78
2022/03/31 11:45:43;;;;;;;6.45;1.95;;;8.60;99.90;;;;;;4928482;29;20045;-78
2022/03/31 11:48:18;;;;;;;4.88;1.65;;;8.60;99.90;;;;;;4934932;29;20031;-79
2022/03/31 11:50:53;;;;;;;7.93;2.33;;;8.80;99.90;;;;;;4935577;29;20023;-77
2022/03/31 11:53:20;;;;;;;8.15;1.98;;;8.80;99.90;;;;;;4936903;29;20032;-78
2022/03/31 11:56:06;;;;;;;6.13;3.35;;;9.10;99.90;;;;;;4936441;29;20026;-78
2022/03/31 11:58:44;;;;;;;8.45;1.88;;;9.20;99.90;;;;;;4938841;29;20164;-78
2022/03/31 12:01:11;;;;;;;5.88;2.50;;;9.30;99.90;;;;;;4930780;29;20497;-78
2022/03/31 12:03:39;;;;;;;8.55;2.00;;;9.40;99.90;;;;;;4923900;29;20107;-79
2022/03/31 12:06:06;;;;;;;7.13;2.10;;;9.60;99.90;;;;;;4951603;29;20502;-79
2022/03/31 12:08:33;;;;;;;4.65;2.35;;;9.60;99.90;;;;;;4951085;29;20361;-79
2022/03/31 12:11:00;;;;;;;4.00;1.80;;;9.70;99.90;;;;;;4949462;29;20030;-79
2022/03/31 12:13:27;;;;;;;4.70;2.03;;;9.90;99.90;;;;;;4949391;29;20027;-80
2022/03/31 12:16:08;;;;;;;4.32;2.00;;;10.10;99.90;;;;;;4949914;29;20075;-80
2022/03/31 12:18:35;;;;;;;3.42;2.65;;;10.30;99.90;;;;;;4948372;28;20027;-79
2022/03/31 12:21:04;;;;;;;4.38;2.78;;;10.60;99.90;;;;;;4930500;29;20050;-77
2022/03/31 12:23:29;;;;;;;5.13;2.35;;;10.70;99.90;;;;;;4929888;29;20047;-79
2022/03/31 12:25:56;;;;;;;4.07;1.67;;;10.80;99.90;;;;;;4933463;29;20418;-78
2022/03/31 12:28:23;;;;;;;5.65;1.85;;;12.90;99.90;;;;;;4935773;29;20051;-75
2022/03/31 12:30:51;;;;;;;6.35;1.80;;;11.00;99.90;;;;;;4934598;29;20115;-75
2022/03/31 12:33:30;;;;;;;6.72;1.98;;;10.80;99.90;;;;;;4934273;29;20024;-75
2022/03/31 12:36:02;;;;;;;5.80;2.60;;;11.10;99.90;;;;;;4936052;29;20016;-75
2022/03/31 12:38:49;;;;;;;6.70;1.80;;;11.30;99.90;;;;;;4935081;29;20108;-80
2022/03/31 12:41:22;;;;;;;5.82;2.08;;;11.30;99.90;;;;;;4919133;29;20039;-78
2022/03/31 12:43:59;;;;;;;1.98;1.60;;;11.30;99.90;;;;;;4937686;29;20024;-80
2022/03/31 12:46:28;;;;;;;4.63;1.50;;;11.20;99.90;;;;;;4926601;29;20020;-80
2022/03/31 12:49:08;;;;;;;5.97;1.73;;;11.30;99.90;;;;;;4920392;29;20032;-81
2022/03/31 12:51:41;;;;;;;4.05;1.95;;;11.20;99.90;;;;;;4922320;29;20036;-80
2022/03/31 12:54:27;;;;;;;2.92;1.38;;;11.10;99.90;;;;;;4933673;29;20106;-80
2022/03/31 12:57:02;;;;;;;5.95;1.70;;;11.40;99.90;;;;;;4933362;29;20035;-80